Anthon, Iowa
Current Conditions -  °F | °C
As of 8:52 AM on Monday 24 Nov 2014 (Local Time) from KSUX Reporting Station
Overcast Overcast  
Wind Chill: -13°   Ceiling: 2100
Heat Index: -4°   Visibility: 10mi
Dew Point: -9°   Wind: 29mph
Humidity: 69%   Direction: 330°NNW
Pressure: 29.66"   Gusts: 36mph
Location:  42.39°N, 95.87°W
Report Text: KSUX 241452Z 33025G31KT 10SM OVC021 M04/M09 A2966 RMK AO2 PK WND 32035/1406 SLP057 T10391089 53029
Loading
Personal Weather Stations






























Interactive Weather Map New forecast layout! Learn more

10-Day Weather Forecast

Advertisements
Track Severe Weather on mobile